createdAt,value
2022-12-11T00:02:34.045Z,-0.31
2022-12-11T00:07:42.705Z,-0.70
2022-12-11T00:12:47.118Z,-0.58
2022-12-11T00:17:49.768Z,-0.40
2022-12-11T00:22:53.548Z,-0.69
2022-12-11T00:27:56.262Z,-0.20
2022-12-11T00:32:58.640Z,-0.35
2022-12-11T00:38:02.425Z,-0.88
2022-12-11T00:43:05.133Z,-0.80
2022-12-11T00:48:07.747Z,-0.46
2022-12-11T00:53:11.651Z,-0.42
2022-12-11T00:58:14.227Z,-0.68
2022-12-11T01:03:17.324Z,-0.52
2022-12-11T01:08:21.537Z,-0.26
2022-12-11T01:13:24.047Z,-0.75
2022-12-11T01:18:26.546Z,-0.40
2022-12-11T01:23:30.455Z,-0.30
2022-12-11T01:28:32.877Z,-0.44
2022-12-11T01:33:35.292Z,-1.00
2022-12-11T01:38:39.101Z,-0.33
2022-12-11T01:43:57.078Z,-0.04
2022-12-11T01:49:00.673Z,0.07
2022-12-11T01:54:07.811Z,-0.58
2022-12-11T01:59:11.076Z,-0.27
2022-12-11T02:04:15.052Z,-0.49
2022-12-11T02:09:20.382Z,-0.07
2022-12-11T02:14:28.155Z,-0.22
2022-12-11T02:19:46.462Z,-1.20
2022-12-11T02:24:58.702Z,-0.73
2022-12-11T02:30:07.247Z,-0.26
2022-12-11T02:35:13.354Z,-0.84
2022-12-11T02:40:18.893Z,-0.06
2022-12-11T02:45:23.602Z,-0.09
2022-12-11T02:50:26.680Z,-0.60
2022-12-11T02:55:30.370Z,0.15
2022-12-11T03:00:34.223Z,0.62
2022-12-11T03:05:36.987Z,0.84
2022-12-11T03:10:39.400Z,0.52
2022-12-11T03:16:01.189Z,0.31
2022-12-11T03:21:07.051Z,0.70
2022-12-11T03:26:11.455Z,0.39
2022-12-11T03:31:17.735Z,0.71
2022-12-11T03:36:23.008Z,0.89
2022-12-11T03:41:27.044Z,0.74
2022-12-11T03:46:33.022Z,0.54
2022-12-11T03:51:36.565Z,-0.14
2022-12-11T03:56:39.475Z,0.15
2022-12-11T04:01:43.357Z,0.12
2022-12-11T04:06:45.895Z,0.22
2022-12-11T04:11:48.360Z,0.56
2022-12-11T04:16:53.252Z,0.74
2022-12-11T04:22:13.253Z,0.95
2022-12-11T04:27:37.600Z,0.88
2022-12-11T04:32:41.403Z,0.74
2022-12-11T04:37:43.821Z,0.77
2022-12-11T04:42:46.711Z,0.87
2022-12-11T04:47:50.534Z,1.04
2022-12-11T04:52:55.242Z,0.87
2022-12-11T04:57:57.734Z,0.92
2022-12-11T05:03:01.568Z,0.68
2022-12-11T05:08:04.852Z,0.84
2022-12-11T05:13:07.372Z,0.59
2022-12-11T05:18:11.185Z,0.52
2022-12-11T05:23:13.850Z,0.42
2022-12-11T05:28:16.319Z,0.33
2022-12-11T05:33:20.161Z,0.66
2022-12-11T05:38:22.826Z,0.78
2022-12-11T05:43:25.319Z,0.55
2022-12-11T05:48:29.190Z,-0.49
2022-12-11T05:53:32.218Z,-0.47
2022-12-11T05:58:34.991Z,-0.25
2022-12-11T06:03:38.848Z,0.18
2022-12-11T06:08:41.360Z,-0.68
2022-12-11T06:13:44.091Z,-0.21
2022-12-11T06:18:48.551Z,-0.20
2022-12-11T06:23:52.294Z,-0.10
2022-12-11T06:28:54.884Z,0.37
2022-12-11T06:33:58.720Z,0.56
2022-12-11T06:39:01.312Z,0.59
2022-12-11T06:44:03.812Z,0.44
2022-12-11T06:49:07.593Z,0.27
2022-12-11T06:54:10.050Z,0.28
2022-12-11T06:59:12.576Z,0.43
2022-12-11T07:04:16.384Z,0.43
2022-12-11T07:09:18.816Z,0.64
2022-12-11T07:14:22.027Z,0.35
2022-12-11T07:19:25.866Z,0.34
2022-12-11T07:24:28.369Z,0.46
2022-12-11T07:29:30.780Z,0.66
2022-12-11T07:34:34.579Z,0.69
2022-12-11T07:39:37.001Z,-0.06
2022-12-11T07:44:39.508Z,0.21
2022-12-11T07:49:43.285Z,-0.15
2022-12-11T07:54:45.743Z,-0.17
2022-12-11T07:59:48.159Z,0.26
2022-12-11T08:04:51.917Z,0.50
2022-12-11T08:09:54.358Z,0.87
2022-12-11T08:14:58.137Z,0.41
2022-12-11T08:20:01.883Z,0.83
2022-12-11T08:25:04.545Z,0.56
2022-12-11T08:30:07.636Z,0.46
2022-12-11T08:35:12.110Z,0.78
2022-12-11T08:40:14.798Z,0.38
2022-12-11T08:45:17.268Z,0.88
2022-12-11T08:50:21.073Z,0.79
2022-12-11T08:55:23.508Z,0.52
2022-12-11T09:00:25.910Z,0.91
2022-12-11T09:05:29.749Z,0.64
2022-12-11T09:10:32.235Z,1.05
2022-12-11T09:15:34.748Z,1.07
2022-12-11T09:20:38.639Z,0.89
2022-12-11T09:25:41.139Z,1.13
2022-12-11T09:30:43.748Z,0.77
2022-12-11T09:35:47.659Z,0.63
2022-12-11T09:40:50.362Z,1.18
2022-12-11T09:45:55.242Z,0.97
2022-12-11T09:50:59.127Z,0.58
2022-12-11T09:56:05.436Z,0.67
2022-12-11T10:01:12.524Z,0.26
2022-12-11T10:06:22.144Z,0.38
2022-12-11T10:11:40.060Z,0.15
2022-12-11T10:16:44.999Z,0.03
2022-12-11T10:21:50.718Z,0.32
2022-12-11T10:26:55.473Z,0.35
2022-12-11T10:31:59.395Z,0.13
2022-12-11T10:37:03.376Z,0.34
2022-12-11T10:42:14.724Z,0.79
2022-12-11T10:47:19.382Z,0.58
2022-12-11T10:52:24.749Z,1.10
2022-12-11T10:57:32.214Z,0.81
2022-12-11T11:02:38.093Z,0.78
2022-12-11T11:07:42.217Z,0.19
2022-12-11T11:12:46.013Z,0.35
2022-12-11T11:17:54.849Z,0.51
2022-12-11T11:23:01.046Z,0.14
2022-12-11T11:28:05.193Z,0.11
2022-12-11T11:33:13.582Z,0.51
2022-12-11T11:38:19.120Z,0.84
2022-12-11T11:43:29.167Z,0.74
2022-12-11T11:48:35.089Z,1.00
2022-12-11T11:53:41.587Z,1.21
2022-12-11T11:58:47.917Z,0.98
2022-12-11T12:03:51.356Z,1.05
2022-12-11T12:08:59.180Z,0.83
2022-12-11T12:14:28.827Z,0.99
2022-12-11T12:19:47.592Z,0.36
2022-12-11T12:24:54.201Z,0.67
2022-12-11T12:30:02.909Z,0.73
2022-12-11T12:35:11.079Z,1.08
2022-12-11T12:40:21.838Z,1.28
2022-12-11T12:45:29.790Z,1.51
2022-12-11T12:50:38.095Z,1.60
2022-12-11T12:55:42.721Z,1.12
2022-12-11T13:00:45.166Z,0.78
2022-12-11T13:05:56.309Z,1.07
2022-12-11T13:11:03.102Z,1.44
2022-12-11T13:16:09.725Z,1.47
2022-12-11T13:21:26.944Z,1.78
2022-12-11T13:26:31.242Z,1.91
2022-12-11T13:31:35.551Z,2.36
2022-12-11T13:36:41.146Z,1.66
2022-12-11T13:41:46.342Z,2.16
2022-12-11T13:46:49.746Z,1.69
2022-12-11T13:51:53.806Z,1.95
2022-12-11T13:56:59.317Z,1.57
2022-12-11T14:02:05.172Z,1.44
2022-12-11T14:07:09.618Z,1.17
2022-12-11T14:12:18.379Z,0.81
2022-12-11T14:17:24.162Z,0.24
2022-12-11T14:22:27.515Z,-0.48
2022-12-11T14:27:31.282Z,-0.29
2022-12-11T14:32:36.061Z,-0.53
2022-12-11T14:37:38.653Z,-0.34
2022-12-11T14:42:45.271Z,-0.53
2022-12-11T14:47:48.439Z,-1.00
2022-12-11T14:52:52.709Z,-0.31
2022-12-11T14:57:59.096Z,-0.44
2022-12-11T15:03:02.799Z,-0.59
2022-12-11T15:08:24.416Z,-0.86
2022-12-11T15:13:28.700Z,-0.73
2022-12-11T15:18:32.315Z,-0.93
2022-12-11T15:23:38.609Z,-0.45
2022-12-11T15:28:42.420Z,-0.23
2022-12-11T15:33:46.774Z,-0.38
2022-12-11T15:38:49.222Z,-0.35
2022-12-11T15:43:58.269Z,-0.51
2022-12-11T15:49:01.494Z,-0.52
2022-12-11T15:54:04.088Z,-0.57
2022-12-11T15:59:08.039Z,-0.91
2022-12-11T16:04:11.829Z,-0.79
2022-12-11T16:09:14.238Z,-0.39
2022-12-11T16:14:18.175Z,-0.98
2022-12-11T16:19:20.676Z,-0.62
2022-12-11T16:24:24.827Z,-1.15
2022-12-11T16:29:28.747Z,-1.04
2022-12-11T16:34:33.759Z,-0.55
2022-12-11T16:39:37.135Z,-1.12
2022-12-11T16:44:43.971Z,-0.38
2022-12-11T16:49:46.739Z,-0.31
2022-12-11T16:54:49.208Z,-0.67
2022-12-11T16:59:53.048Z,-0.76
2022-12-11T17:04:55.533Z,-0.77
2022-12-11T17:09:58.085Z,-0.41
2022-12-11T17:15:01.929Z,-0.69
2022-12-11T17:20:04.979Z,-0.66
2022-12-11T17:25:07.968Z,-0.64
2022-12-11T17:30:14.251Z,-1.02
2022-12-11T17:35:17.199Z,-1.11
2022-12-11T17:40:20.744Z,-0.90
2022-12-11T17:45:24.574Z,-1.12
2022-12-11T17:50:27.036Z,-0.91
2022-12-11T17:55:31.206Z,-0.48
2022-12-11T18:00:35.147Z,-0.45
2022-12-11T18:05:41.584Z,-0.52
2022-12-11T18:10:44.385Z,-0.37
2022-12-11T18:15:48.713Z,-0.72
2022-12-11T18:20:51.177Z,-0.65
2022-12-11T18:25:53.685Z,-0.56
2022-12-11T18:30:59.656Z,-0.29
2022-12-11T18:36:02.155Z,-0.42
2022-12-11T18:41:04.894Z,-0.60
2022-12-11T18:46:11.104Z,-0.71
2022-12-11T18:51:14.454Z,-0.45
2022-12-11T18:56:18.225Z,-0.62
2022-12-11T19:01:23.217Z,-0.84
2022-12-11T19:06:28.534Z,-0.77
2022-12-11T19:11:32.225Z,-0.96
2022-12-11T19:16:37.016Z,-0.89
2022-12-11T19:21:39.989Z,-1.29
2022-12-11T19:26:42.422Z,-1.05
2022-12-11T19:31:46.698Z,-0.63
2022-12-11T19:36:49.193Z,-0.69
2022-12-11T19:41:51.652Z,-1.00
2022-12-11T19:46:55.552Z,-1.09
2022-12-11T19:51:58.191Z,-1.50
2022-12-11T19:57:00.596Z,-1.02
2022-12-11T20:02:04.468Z,-1.44
2022-12-11T20:07:06.991Z,-1.36
2022-12-11T20:12:10.441Z,-1.12
2022-12-11T20:17:15.401Z,-1.15
2022-12-11T20:22:18.396Z,-1.23
2022-12-11T20:27:20.830Z,-1.30
2022-12-11T20:32:25.004Z,-1.27
2022-12-11T20:37:29.063Z,-1.28
2022-12-11T20:42:31.551Z,-1.00
2022-12-11T20:47:35.364Z,-0.69
2022-12-11T20:52:38.376Z,-0.70
2022-12-11T20:57:45.002Z,-0.89
2022-12-11T21:02:50.300Z,-1.17
2022-12-11T21:07:54.268Z,-1.26
2022-12-11T21:12:56.854Z,-1.63
2022-12-11T21:18:00.805Z,-1.88
2022-12-11T21:23:03.676Z,-1.44
2022-12-11T21:28:06.093Z,-1.72
2022-12-11T21:33:09.953Z,-1.33
2022-12-11T21:38:12.643Z,-1.11
2022-12-11T21:43:15.149Z,-1.81
2022-12-11T21:48:19.092Z,-1.50
2022-12-11T21:53:21.519Z,-1.12
2022-12-11T21:58:23.969Z,-1.11
2022-12-11T22:03:27.760Z,-1.00
2022-12-11T22:08:30.288Z,-0.97
2022-12-11T22:13:32.905Z,-1.19
2022-12-11T22:18:36.729Z,-0.91
2022-12-11T22:23:39.547Z,-0.43
2022-12-11T22:28:41.939Z,-0.54
2022-12-11T22:33:45.670Z,-0.48
2022-12-11T22:38:48.129Z,-1.15
2022-12-11T22:43:50.776Z,-1.19
2022-12-11T22:48:54.641Z,-1.07
2022-12-11T22:53:57.080Z,-1.15
2022-12-11T22:59:01.995Z,-1.25
2022-12-11T23:04:06.040Z,-1.30
2022-12-11T23:09:08.459Z,-1.43
2022-12-11T23:14:14.406Z,-1.65
2022-12-11T23:19:23.728Z,-1.75
2022-12-11T23:24:28.001Z,-1.51
2022-12-11T23:29:30.505Z,-1.55
2022-12-11T23:34:34.329Z,-1.12
2022-12-11T23:39:36.771Z,-0.65
2022-12-11T23:44:39.260Z,-1.14
2022-12-11T23:49:43.118Z,-0.93
2022-12-11T23:54:45.518Z,-0.78
2022-12-11T23:59:47.969Z,-0.72
